Ikuta — JD2239 — position and weather

sailwx.info

Track history (hours):
 
Tides and Currents Weather Stations Pressure Air Temp Water Temp Dewpoint Dewpoint Depression Visibility Wind Speed Wind Dir Waves Ship Positions

Ikuta

Last reported at 2017-Oct-18 21:38 UTC. Time now 2017-Oct-20 03:11 UTC.
Position N 35°06' E 140°21'.

Length 96 m; draft 3.6 m.

Type: Cargo ship. MMSI: 431501857.

Date/timePositionNaut miles runAvg speedWind from/ knotsBaromVisibWave heightAir tempDewpointWater temp
2017-Oct-18 21:38N 35°06' E 140°21'211.1
2017-Oct-18 21:29N 35°05' E 140°19'2810.2
2017-Oct-18 18:45N 34°52' E 139°49'414.4
2017-Oct-18 18:30N 34°55' E 139°46'613.2
2017-Oct-18 18:00N 35°01' E 139°44'612.7
2017-Oct-18 17:30N 35°08' E 139°45'613.0
2017-Oct-18 17:00N 35°14' E 139°46'612.3
2017-Oct-18 16:30N 35°19' E 139°43'611.8
2017-Oct-18 16:00N 35°25' E 139°44'713.1
2017-Oct-18 15:30N 35°30' E 139°50'711.3
2017-Oct-18 14:54N 35°36' E 139°47'0 0.2
2017-Oct-18 13:55N 35°36' E 139°47'0 0.0
2017-Oct-18 13:25N 35°36' E 139°47'0 0.3
2017-Oct-18 12:59N 35°36' E 139°47'5 9.6
2017-Oct-18 12:30N 35°33' E 139°52'0 0.6
2017-Oct-18 11:59N 35°33' E 139°52'1 1.6
2017-Oct-18 11:30N 35°33' E 139°53'0 0.0
2017-Oct-18 10:58N 35°33' E 139°53'0 0.0
2017-Oct-18 10:28N 35°33' E 139°53'0 0.0
2017-Oct-18 09:07N 35°33' E 139°53'0 0.0
2017-Oct-18 08:31N 35°33' E 139°53'0 0.0
2017-Oct-18 08:19N 35°33' E 139°53'0 0.0
2017-Oct-18 03:11N 35°33' E 139°53'0 2.7
2017-Oct-18 03:00N 35°33' E 139°53'510.7
2017-Oct-18 02:30N 35°29' E 139°49'510.4
2017-Oct-18 02:00N 35°25' E 139°44'3 5.6
2017-Oct-18 01:30N 35°24' E 139°41'0 0.2
2017-Oct-18 01:00N 35°24' E 139°41'1 1.3
2017-Oct-18 00:30N 35°23' E 139°41'3 4.2
2017-Oct-17 23:54N 35°23' E 139°44'0 0.0
2017-Oct-17 23:30N 35°23' E 139°44'0 0.0
2017-Oct-17 23:00N 35°23' E 139°44'0 0.0
2017-Oct-17 22:30N 35°23' E 139°44'0 0.0
2017-Oct-17 22:00N 35°23' E 139°44'0 0.0
2017-Oct-17 21:30N 35°23' E 139°44'0 0.0
2017-Oct-17 21:00N 35°23' E 139°44'0 0.0
2017-Oct-17 20:30N 35°23' E 139°44'0 0.0
2017-Oct-17 20:00N 35°23' E 139°44'0 0.0
2017-Oct-17 19:30N 35°23' E 139°44'0 0.0
2017-Oct-17 19:00N 35°23' E 139°44'2 3.3
2017-Oct-17 18:31N 35°21' E 139°43'611.1
2017-Oct-17 18:01N 35°16' E 139°46'611.1
2017-Oct-17 17:31N 35°10' E 139°46'611.7
2017-Oct-17 17:00N 35°05' E 139°45'510.4
2017-Oct-17 16:30N 34°60' E 139°44'29 0.9
2017-Oct-16 08:55N 35°05' E 140°19'29 9.3
2017-Oct-16 05:47N 34°53' E 139°47'415.3
2017-Oct-16 05:30N 34°57' E 139°44'713.7
2017-Oct-16 05:00N 35°03' E 139°43'613.0
2017-Oct-16 04:30N 35°10' E 139°46'613.0
2017-Oct-16 04:00N 35°16' E 139°46'612.8
2017-Oct-16 03:30N 35°22' E 139°42'611.8
2017-Oct-16 03:00N 35°28' E 139°40'1 2.7
2017-Oct-16 02:28N 35°29' E 139°39'0 0.0
2017-Oct-16 01:58N 35°29' E 139°39'0 0.0
2017-Oct-16 01:28N 35°29' E 139°39'0 0.0
2017-Oct-16 00:58N 35°29' E 139°39'0 0.0
2017-Oct-16 00:28N 35°29' E 139°39'0 0.0
2017-Oct-15 23:58N 35°29' E 139°39'0 0.0
2017-Oct-15 23:28N 35°29' E 139°39'0 0.0
2017-Oct-15 22:58N 35°29' E 139°39'0 0.0
2017-Oct-15 22:28N 35°29' E 139°39'0 0.0
2017-Oct-15 21:58N 35°29' E 139°39'0 0.0
2017-Oct-15 21:28N 35°29' E 139°39'0 0.0
2017-Oct-15 20:58N 35°29' E 139°39'0 0.0
2017-Oct-15 20:28N 35°29' E 139°39'0 0.0
2017-Oct-15 19:58N 35°29' E 139°39'0 0.0
2017-Oct-15 19:28N 35°29' E 139°39'0 0.0
2017-Oct-15 18:58N 35°29' E 139°39'0 0.0
2017-Oct-15 18:28N 35°29' E 139°39'0 0.0
2017-Oct-15 17:58N 35°29' E 139°39'0 0.0
2017-Oct-15 17:28N 35°29' E 139°39'0 0.0
2017-Oct-15 16:58N 35°29' E 139°39'0 0.0
2017-Oct-15 16:28N 35°29' E 139°39'0 0.0
2017-Oct-15 15:58N 35°29' E 139°39'0 0.0
2017-Oct-15 15:28N 35°29' E 139°39'0 0.0
2017-Oct-15 14:58N 35°29' E 139°39'0 0.0
2017-Oct-15 13:58N 35°29' E 139°39'0 0.0
2017-Oct-15 13:28N 35°29' E 139°39'0 0.0
2017-Oct-15 12:58N 35°29' E 139°39'0 0.0
2017-Oct-15 12:28N 35°29' E 139°39'0 0.0
2017-Oct-15 11:58N 35°29' E 139°39'0 0.0
2017-Oct-15 11:28N 35°29' E 139°39'0 0.0
2017-Oct-15 10:58N 35°29' E 139°39'0 0.0
2017-Oct-15 10:28N 35°29' E 139°39'0 0.0
2017-Oct-15 09:55N 35°29' E 139°39'0 0.0
2017-Oct-15 09:28N 35°29' E 139°39'0 0.0
2017-Oct-15 08:58N 35°29' E 139°39'0 0.0
2017-Oct-15 08:28N 35°29' E 139°39'0 0.0
2017-Oct-15 07:58N 35°29' E 139°39'0 0.0
2017-Oct-15 07:25N 35°29' E 139°39'0 0.0
2017-Oct-15 06:58N 35°29' E 139°39'0 0.0
2017-Oct-15 06:28N 35°29' E 139°39'0 0.0
2017-Oct-15 05:55N 35°29' E 139°39'0 0.0
2017-Oct-15 05:28N 35°29' E 139°39'0 0.0
2017-Oct-15 04:58N 35°29' E 139°39'0 0.0
2017-Oct-15 04:28N 35°29' E 139°39'0 0.0
2017-Oct-15 03:58N 35°29' E 139°39'0 0.0
2017-Oct-15 03:28N 35°29' E 139°39'0 0.0
2017-Oct-15 02:58N 35°29' E 139°39'3 6.4
2017-Oct-15 02:30N 35°27' E 139°42'3 5.5
2017-Oct-15 02:01N 35°24' E 139°41'0 0.1
2017-Oct-15 01:27N 35°24' E 139°41'0 0.0
2017-Oct-15 01:00N 35°24' E 139°41'0 0.0
2017-Oct-15 00:30N 35°24' E 139°41'0 0.0
2017-Oct-15 00:00N 35°24' E 139°41'0 0.0
2017-Oct-14 23:27N 35°24' E 139°41'1 1.8
2017-Oct-14 23:00N 35°23' E 139°41'2 4.4
2017-Oct-14 22:30N 35°23' E 139°44'0 0.0
2017-Oct-14 22:00N 35°23' E 139°44'0 0.0
2017-Oct-14 21:30N 35°23' E 139°44'0 0.0
2017-Oct-14 21:00N 35°23' E 139°44'0 0.0
2017-Oct-14 20:30N 35°23' E 139°44'0 0.0
2017-Oct-14 19:54N 35°23' E 139°44'0 0.0
2017-Oct-14 19:30N 35°23' E 139°44'0 0.0
2017-Oct-14 19:00N 35°23' E 139°44'0 0.0
2017-Oct-14 18:30N 35°23' E 139°44'0 0.0
2017-Oct-14 17:51N 35°23' E 139°44'0 0.0
2017-Oct-14 17:30N 35°23' E 139°44'0 0.1
2017-Oct-14 17:00N 35°23' E 139°44'0 0.0
2017-Oct-14 16:30N 35°23' E 139°44'0 0.0
2017-Oct-14 16:00N 35°23' E 139°44'0 0.1
2017-Oct-14 15:30N 35°23' E 139°44'0 0.1
2017-Oct-14 15:00N 35°23' E 139°44'0 0.0
2017-Oct-14 14:30N 35°23' E 139°44'0 0.0
2017-Oct-14 13:57N 35°23' E 139°44'0 0.1
2017-Oct-14 13:30N 35°23' E 139°44'0 0.1
2017-Oct-14 12:57N 35°23' E 139°44'0 0.0
2017-Oct-14 12:30N 35°23' E 139°44'0 0.0
2017-Oct-14 12:00N 35°23' E 139°44'0 0.0
2017-Oct-14 11:30N 35°23' E 139°44'1 2.6
2017-Oct-14 11:00N 35°24' E 139°45'713.4
2017-Oct-14 10:30N 35°30' E 139°50'510.7
2017-Oct-14 10:00N 35°35' E 139°48'1 0.8
2017-Oct-14 08:24N 35°36' E 139°47'2 5.9
2017-Oct-14 08:00N 35°34' E 139°49'511.2
2017-Oct-14 07:30N 35°30' E 139°52'611.5
2017-Oct-14 07:00N 35°25' E 139°47'611.6
2017-Oct-14 06:30N 35°20' E 139°44'510.9
2017-Oct-14 06:00N 35°15' E 139°47'612.2
2017-Oct-14 05:30N 35°09' E 139°46'612.7
2017-Oct-14 05:00N 35°03' E 139°44'510.2
2017-Oct-14 04:30N 34°58' E 139°44'31 0.7
2017-Oct-12 11:13N 35°05' E 140°20'2912.0
2017-Oct-12 08:47N 34°53' E 139°48'512.1
2017-Oct-12 08:22N 34°57' E 139°44'410.7
2017-Oct-12 08:00N 35°01' E 139°44'510.9
2017-Oct-12 07:30N 35°06' E 139°45'611.1
2017-Oct-12 07:00N 35°12' E 139°46'611.2
2017-Oct-12 06:30N 35°17' E 139°45'510.6
2017-Oct-12 06:00N 35°22' E 139°42'3 5.4
2017-Oct-12 05:30N 35°24' E 139°41'0 0.0
2017-Oct-12 04:59N 35°24' E 139°41'0 0.0
2017-Oct-12 04:29N 35°24' E 139°41'1 2.9
2017-Oct-12 04:00N 35°23' E 139°42'2 3.9
2017-Oct-12 03:28N 35°22' E 139°44'0 0.1
2017-Oct-12 02:58N 35°22' E 139°44'0 0.0
2017-Oct-12 02:25N 35°22' E 139°44'0 0.0
2017-Oct-12 01:58N 35°22' E 139°44'0 0.1
2017-Oct-12 01:28N 35°22' E 139°44'0 0.0
2017-Oct-12 00:55N 35°22' E 139°44'  
Track history (hours):
 
Tides and Currents Weather Stations Pressure Air Temp Water Temp Dewpoint Dewpoint Depression Visibility Wind Speed Wind Dir Waves Ship Positions

Ikuta

Last reported at 2017-Oct-18 21:38 UTC. Time now 2017-Oct-20 03:11 UTC.
Position N 35°06' E 140°21'.

Length 96 m; draft 3.6 m.

Type: Cargo ship. MMSI: 431501857.

Date/timePositionNaut miles runAvg speedWind from/ knotsBaromVisibWave heightAir tempDewpointWater temp
2017-Oct-18 21:38N 35°06' E 140°21'211.1
2017-Oct-18 21:29N 35°05' E 140°19'2810.2
2017-Oct-18 18:45N 34°52' E 139°49'414.4
2017-Oct-18 18:30N 34°55' E 139°46'613.2
2017-Oct-18 18:00N 35°01' E 139°44'612.7
2017-Oct-18 17:30N 35°08' E 139°45'613.0
2017-Oct-18 17:00N 35°14' E 139°46'612.3
2017-Oct-18 16:30N 35°19' E 139°43'611.8
2017-Oct-18 16:00N 35°25' E 139°44'713.1
2017-Oct-18 15:30N 35°30' E 139°50'711.3
2017-Oct-18 14:54N 35°36' E 139°47'0 0.2
2017-Oct-18 13:55N 35°36' E 139°47'0 0.0
2017-Oct-18 13:25N 35°36' E 139°47'0 0.3
2017-Oct-18 12:59N 35°36' E 139°47'5 9.6
2017-Oct-18 12:30N 35°33' E 139°52'0 0.6
2017-Oct-18 11:59N 35°33' E 139°52'1 1.6
2017-Oct-18 11:30N 35°33' E 139°53'0 0.0
2017-Oct-18 10:58N 35°33' E 139°53'0 0.0
2017-Oct-18 10:28N 35°33' E 139°53'0 0.0
2017-Oct-18 09:07N 35°33' E 139°53'0 0.0
2017-Oct-18 08:31N 35°33' E 139°53'0 0.0
2017-Oct-18 08:19N 35°33' E 139°53'0 0.0
2017-Oct-18 03:11N 35°33' E 139°53'0 2.7
2017-Oct-18 03:00N 35°33' E 139°53'510.7
2017-Oct-18 02:30N 35°29' E 139°49'510.4
2017-Oct-18 02:00N 35°25' E 139°44'3 5.6
2017-Oct-18 01:30N 35°24' E 139°41'0 0.2
2017-Oct-18 01:00N 35°24' E 139°41'1 1.3
2017-Oct-18 00:30N 35°23' E 139°41'3 4.2
2017-Oct-17 23:54N 35°23' E 139°44'0 0.0
2017-Oct-17 23:30N 35°23' E 139°44'0 0.0
2017-Oct-17 23:00N 35°23' E 139°44'0 0.0
2017-Oct-17 22:30N 35°23' E 139°44'0 0.0
2017-Oct-17 22:00N 35°23' E 139°44'0 0.0
2017-Oct-17 21:30N 35°23' E 139°44'0 0.0
2017-Oct-17 21:00N 35°23' E 139°44'0 0.0
2017-Oct-17 20:30N 35°23' E 139°44'0 0.0
2017-Oct-17 20:00N 35°23' E 139°44'0 0.0
2017-Oct-17 19:30N 35°23' E 139°44'0 0.0
2017-Oct-17 19:00N 35°23' E 139°44'2 3.3
2017-Oct-17 18:31N 35°21' E 139°43'611.1
2017-Oct-17 18:01N 35°16' E 139°46'611.1
2017-Oct-17 17:31N 35°10' E 139°46'611.7
2017-Oct-17 17:00N 35°05' E 139°45'510.4
2017-Oct-17 16:30N 34°60' E 139°44'29 0.9
2017-Oct-16 08:55N 35°05' E 140°19'29 9.3
2017-Oct-16 05:47N 34°53' E 139°47'415.3
2017-Oct-16 05:30N 34°57' E 139°44'713.7
2017-Oct-16 05:00N 35°03' E 139°43'613.0
2017-Oct-16 04:30N 35°10' E 139°46'613.0
2017-Oct-16 04:00N 35°16' E 139°46'612.8
2017-Oct-16 03:30N 35°22' E 139°42'611.8
2017-Oct-16 03:00N 35°28' E 139°40'1 2.7
2017-Oct-16 02:28N 35°29' E 139°39'0 0.0
2017-Oct-16 01:58N 35°29' E 139°39'0 0.0
2017-Oct-16 01:28N 35°29' E 139°39'0 0.0
2017-Oct-16 00:58N 35°29' E 139°39'0 0.0
2017-Oct-16 00:28N 35°29' E 139°39'0 0.0
2017-Oct-15 23:58N 35°29' E 139°39'0 0.0
2017-Oct-15 23:28N 35°29' E 139°39'0 0.0
2017-Oct-15 22:58N 35°29' E 139°39'0 0.0
2017-Oct-15 22:28N 35°29' E 139°39'0 0.0
2017-Oct-15 21:58N 35°29' E 139°39'0 0.0
2017-Oct-15 21:28N 35°29' E 139°39'0 0.0
2017-Oct-15 20:58N 35°29' E 139°39'0 0.0
2017-Oct-15 20:28N 35°29' E 139°39'0 0.0
2017-Oct-15 19:58N 35°29' E 139°39'0 0.0
2017-Oct-15 19:28N 35°29' E 139°39'0 0.0
2017-Oct-15 18:58N 35°29' E 139°39'0 0.0
2017-Oct-15 18:28N 35°29' E 139°39'0 0.0
2017-Oct-15 17:58N 35°29' E 139°39'0 0.0
2017-Oct-15 17:28N 35°29' E 139°39'0 0.0
2017-Oct-15 16:58N 35°29' E 139°39'0 0.0
2017-Oct-15 16:28N 35°29' E 139°39'0 0.0
2017-Oct-15 15:58N 35°29' E 139°39'0 0.0
2017-Oct-15 15:28N 35°29' E 139°39'0 0.0
2017-Oct-15 14:58N 35°29' E 139°39'0 0.0
2017-Oct-15 13:58N 35°29' E 139°39'0 0.0
2017-Oct-15 13:28N 35°29' E 139°39'0 0.0
2017-Oct-15 12:58N 35°29' E 139°39'0 0.0
2017-Oct-15 12:28N 35°29' E 139°39'0 0.0
2017-Oct-15 11:58N 35°29' E 139°39'0 0.0
2017-Oct-15 11:28N 35°29' E 139°39'0 0.0
2017-Oct-15 10:58N 35°29' E 139°39'0 0.0
2017-Oct-15 10:28N 35°29' E 139°39'0 0.0
2017-Oct-15 09:55N 35°29' E 139°39'0 0.0
2017-Oct-15 09:28N 35°29' E 139°39'0 0.0
2017-Oct-15 08:58N 35°29' E 139°39'0 0.0
2017-Oct-15 08:28N 35°29' E 139°39'0 0.0
2017-Oct-15 07:58N 35°29' E 139°39'0 0.0
2017-Oct-15 07:25N 35°29' E 139°39'0 0.0
2017-Oct-15 06:58N 35°29' E 139°39'0 0.0
2017-Oct-15 06:28N 35°29' E 139°39'0 0.0
2017-Oct-15 05:55N 35°29' E 139°39'0 0.0
2017-Oct-15 05:28N 35°29' E 139°39'0 0.0
2017-Oct-15 04:58N 35°29' E 139°39'0 0.0
2017-Oct-15 04:28N 35°29' E 139°39'0 0.0
2017-Oct-15 03:58N 35°29' E 139°39'0 0.0
2017-Oct-15 03:28N 35°29' E 139°39'0 0.0
2017-Oct-15 02:58N 35°29' E 139°39'3 6.4
2017-Oct-15 02:30N 35°27' E 139°42'3 5.5
2017-Oct-15 02:01N 35°24' E 139°41'0 0.1
2017-Oct-15 01:27N 35°24' E 139°41'0 0.0
2017-Oct-15 01:00N 35°24' E 139°41'0 0.0
2017-Oct-15 00:30N 35°24' E 139°41'0 0.0
2017-Oct-15 00:00N 35°24' E 139°41'0 0.0
2017-Oct-14 23:27N 35°24' E 139°41'1 1.8
2017-Oct-14 23:00N 35°23' E 139°41'2 4.4
2017-Oct-14 22:30N 35°23' E 139°44'0 0.0
2017-Oct-14 22:00N 35°23' E 139°44'0 0.0
2017-Oct-14 21:30N 35°23' E 139°44'0 0.0
2017-Oct-14 21:00N 35°23' E 139°44'0 0.0
2017-Oct-14 20:30N 35°23' E 139°44'0 0.0
2017-Oct-14 19:54N 35°23' E 139°44'0 0.0
2017-Oct-14 19:30N 35°23' E 139°44'0 0.0
2017-Oct-14 19:00N 35°23' E 139°44'0 0.0
2017-Oct-14 18:30N 35°23' E 139°44'0 0.0
2017-Oct-14 17:51N 35°23' E 139°44'0 0.0
2017-Oct-14 17:30N 35°23' E 139°44'0 0.1
2017-Oct-14 17:00N 35°23' E 139°44'0 0.0
2017-Oct-14 16:30N 35°23' E 139°44'0 0.0
2017-Oct-14 16:00N 35°23' E 139°44'0 0.1
2017-Oct-14 15:30N 35°23' E 139°44'0 0.1
2017-Oct-14 15:00N 35°23' E 139°44'0 0.0
2017-Oct-14 14:30N 35°23' E 139°44'0 0.0
2017-Oct-14 13:57N 35°23' E 139°44'0 0.1
2017-Oct-14 13:30N 35°23' E 139°44'0 0.1
2017-Oct-14 12:57N 35°23' E 139°44'0 0.0
2017-Oct-14 12:30N 35°23' E 139°44'0 0.0
2017-Oct-14 12:00N 35°23' E 139°44'0 0.0
2017-Oct-14 11:30N 35°23' E 139°44'1 2.6
2017-Oct-14 11:00N 35°24' E 139°45'713.4
2017-Oct-14 10:30N 35°30' E 139°50'510.7
2017-Oct-14 10:00N 35°35' E 139°48'1 0.8
2017-Oct-14 08:24N 35°36' E 139°47'2 5.9
2017-Oct-14 08:00N 35°34' E 139°49'511.2
2017-Oct-14 07:30N 35°30' E 139°52'611.5
2017-Oct-14 07:00N 35°25' E 139°47'611.6
2017-Oct-14 06:30N 35°20' E 139°44'510.9
2017-Oct-14 06:00N 35°15' E 139°47'612.2
2017-Oct-14 05:30N 35°09' E 139°46'612.7
2017-Oct-14 05:00N 35°03' E 139°44'510.2
2017-Oct-14 04:30N 34°58' E 139°44'31 0.7
2017-Oct-12 11:13N 35°05' E 140°20'2912.0
2017-Oct-12 08:47N 34°53' E 139°48'512.1
2017-Oct-12 08:22N 34°57' E 139°44'410.7
2017-Oct-12 08:00N 35°01' E 139°44'510.9
2017-Oct-12 07:30N 35°06' E 139°45'611.1
2017-Oct-12 07:00N 35°12' E 139°46'611.2
2017-Oct-12 06:30N 35°17' E 139°45'510.6
2017-Oct-12 06:00N 35°22' E 139°42'3 5.4
2017-Oct-12 05:30N 35°24' E 139°41'0 0.0
2017-Oct-12 04:59N 35°24' E 139°41'0 0.0
2017-Oct-12 04:29N 35°24' E 139°41'1 2.9
2017-Oct-12 04:00N 35°23' E 139°42'2 3.9
2017-Oct-12 03:28N 35°22' E 139°44'0 0.1
2017-Oct-12 02:58N 35°22' E 139°44'0 0.0
2017-Oct-12 02:25N 35°22' E 139°44'0 0.0
2017-Oct-12 01:58N 35°22' E 139°44'0 0.1
2017-Oct-12 01:28N 35°22' E 139°44'0 0.0
2017-Oct-12 00:55N 35°22' E 139°44'  

Dump ship's entire track history